sensor_id;sensor_type;location;lat;lon;timestamp;temperature;humidity
25352;DHT22;13304;48.464;8.712;2023-12-07T00:00:06;4.20;92.80
25352;DHT22;13304;48.464;8.712;2023-12-07T00:02:32;4.20;92.80
25352;DHT22;13304;48.464;8.712;2023-12-07T00:04:57;4.30;92.90
25352;DHT22;13304;48.464;8.712;2023-12-07T00:07:23;4.30;92.90
25352;DHT22;13304;48.464;8.712;2023-12-07T00:09:49;4.30;92.90
25352;DHT22;13304;48.464;8.712;2023-12-07T00:12:14;4.30;92.90
25352;DHT22;13304;48.464;8.712;2023-12-07T00:14:40;4.30;92.90
25352;DHT22;13304;48.464;8.712;2023-12-07T00:17:05;4.30;92.90
25352;DHT22;13304;48.464;8.712;2023-12-07T00:19:31;4.30;92.90
25352;DHT22;13304;48.464;8.712;2023-12-07T00:21:57;4.40;92.90
25352;DHT22;13304;48.464;8.712;2023-12-07T00:24:22;4.40;92.90
25352;DHT22;13304;48.464;8.712;2023-12-07T00:26:48;4.40;92.90
25352;DHT22;13304;48.464;8.712;2023-12-07T00:29:15;4.40;92.90
25352;DHT22;13304;48.464;8.712;2023-12-07T00:31:40;4.40;93.00
25352;DHT22;13304;48.464;8.712;2023-12-07T00:34:07;4.40;93.00
25352;DHT22;13304;48.464;8.712;2023-12-07T00:36:35;4.40;93.00
25352;DHT22;13304;48.464;8.712;2023-12-07T00:39:00;4.40;93.00
25352;DHT22;13304;48.464;8.712;2023-12-07T00:41:26;4.40;92.90
25352;DHT22;13304;48.464;8.712;2023-12-07T00:43:52;4.40;92.90
25352;DHT22;13304;48.464;8.712;2023-12-07T00:46:17;4.40;92.90
25352;DHT22;13304;48.464;8.712;2023-12-07T00:48:43;4.40;92.90
25352;DHT22;13304;48.464;8.712;2023-12-07T00:51:09;4.50;92.90
25352;DHT22;13304;48.464;8.712;2023-12-07T00:53:35;4.50;92.80
25352;DHT22;13304;48.464;8.712;2023-12-07T00:56:03;4.50;92.80
25352;DHT22;13304;48.464;8.712;2023-12-07T00:58:28;4.50;92.70
25352;DHT22;13304;48.464;8.712;2023-12-07T01:00:54;4.50;92.60
25352;DHT22;13304;48.464;8.712;2023-12-07T01:03:20;4.50;92.60
25352;DHT22;13304;48.464;8.712;2023-12-07T01:05:45;4.40;92.50
25352;DHT22;13304;48.464;8.712;2023-12-07T01:08:11;4.50;92.50
25352;DHT22;13304;48.464;8.712;2023-12-07T01:10:36;4.40;92.50
25352;DHT22;13304;48.464;8.712;2023-12-07T01:13:02;4.40;92.40
25352;DHT22;13304;48.464;8.712;2023-12-07T01:15:28;4.40;92.40
25352;DHT22;13304;48.464;8.712;2023-12-07T01:17:53;4.40;92.40
25352;DHT22;13304;48.464;8.712;2023-12-07T01:20:19;4.40;92.30
25352;DHT22;13304;48.464;8.712;2023-12-07T01:22:45;4.30;92.20
25352;DHT22;13304;48.464;8.712;2023-12-07T01:25:11;4.30;92.30
25352;DHT22;13304;48.464;8.712;2023-12-07T01:27:37;4.30;92.20
25352;DHT22;13304;48.464;8.712;2023-12-07T01:30:03;4.30;92.30
25352;DHT22;13304;48.464;8.712;2023-12-07T01:32:29;4.20;92.30
25352;DHT22;13304;48.464;8.712;2023-12-07T01:34:55;4.20;92.30
25352;DHT22;13304;48.464;8.712;2023-12-07T01:37:21;4.20;92.30
25352;DHT22;13304;48.464;8.712;2023-12-07T01:39:46;4.20;92.20
25352;DHT22;13304;48.464;8.712;2023-12-07T01:42:12;4.20;92.20
25352;DHT22;13304;48.464;8.712;2023-12-07T01:44:38;4.20;92.20
25352;DHT22;13304;48.464;8.712;2023-12-07T01:47:06;4.10;92.00
25352;DHT22;13304;48.464;8.712;2023-12-07T01:49:34;4.00;92.00
25352;DHT22;13304;48.464;8.712;2023-12-07T01:52:02;4.00;92.10
25352;DHT22;13304;48.464;8.712;2023-12-07T01:54:29;4.00;92.20
25352;DHT22;13304;48.464;8.712;2023-12-07T01:56:55;4.00;92.30
25352;DHT22;13304;48.464;8.712;2023-12-07T01:59:22;3.90;92.30
25352;DHT22;13304;48.464;8.712;2023-12-07T02:01:47;3.90;92.20
25352;DHT22;13304;48.464;8.712;2023-12-07T02:04:13;3.90;92.30
25352;DHT22;13304;48.464;8.712;2023-12-07T02:06:39;3.80;92.30
25352;DHT22;13304;48.464;8.712;2023-12-07T02:09:05;3.80;92.40
25352;DHT22;13304;48.464;8.712;2023-12-07T02:11:31;3.80;92.40
25352;DHT22;13304;48.464;8.712;2023-12-07T02:13:56;3.80;92.70
25352;DHT22;13304;48.464;8.712;2023-12-07T02:16:45;3.80;92.40
25352;DHT22;13304;48.464;8.712;2023-12-07T02:19:33;3.80;92.30
25352;DHT22;13304;48.464;8.712;2023-12-07T02:22:12;3.80;92.30
25352;DHT22;13304;48.464;8.712;2023-12-07T02:24:48;3.80;92.40
25352;DHT22;13304;48.464;8.712;2023-12-07T02:27:36;3.70;92.30
25352;DHT22;13304;48.464;8.712;2023-12-07T02:30:02;3.70;92.30
25352;DHT22;13304;48.464;8.712;2023-12-07T02:32:28;3.70;92.30
25352;DHT22;13304;48.464;8.712;2023-12-07T02:34:53;3.70;92.30
25352;DHT22;13304;48.464;8.712;2023-12-07T02:37:21;3.70;92.20
25352;DHT22;13304;48.464;8.712;2023-12-07T02:39:48;3.70;92.30
25352;DHT22;13304;48.464;8.712;2023-12-07T02:42:15;3.60;92.30
25352;DHT22;13304;48.464;8.712;2023-12-07T02:44:43;3.60;92.20
25352;DHT22;13304;48.464;8.712;2023-12-07T02:47:09;3.60;92.20
25352;DHT22;13304;48.464;8.712;2023-12-07T02:49:34;3.60;92.30
25352;DHT22;13304;48.464;8.712;2023-12-07T02:52:00;3.60;92.30
25352;DHT22;13304;48.464;8.712;2023-12-07T02:54:25;3.60;92.40
25352;DHT22;13304;48.464;8.712;2023-12-07T02:56:51;3.50;92.40
25352;DHT22;13304;48.464;8.712;2023-12-07T02:59:17;3.50;92.40
25352;DHT22;13304;48.464;8.712;2023-12-07T03:01:42;3.50;92.40
25352;DHT22;13304;48.464;8.712;2023-12-07T03:04:08;3.50;92.40
25352;DHT22;13304;48.464;8.712;2023-12-07T03:06:34;3.50;92.50
25352;DHT22;13304;48.464;8.712;2023-12-07T03:09:00;3.50;92.60
25352;DHT22;13304;48.464;8.712;2023-12-07T03:11:25;3.50;92.60
25352;DHT22;13304;48.464;8.712;2023-12-07T03:13:51;3.50;92.60
25352;DHT22;13304;48.464;8.712;2023-12-07T03:16:16;3.50;92.70
25352;DHT22;13304;48.464;8.712;2023-12-07T03:18:42;3.50;92.70
25352;DHT22;13304;48.464;8.712;2023-12-07T03:21:08;3.50;92.60
25352;DHT22;13304;48.464;8.712;2023-12-07T03:23:33;3.50;92.70
25352;DHT22;13304;48.464;8.712;2023-12-07T03:25:59;3.50;92.60
25352;DHT22;13304;48.464;8.712;2023-12-07T03:28:24;3.50;92.70
25352;DHT22;13304;48.464;8.712;2023-12-07T03:30:50;3.40;92.70
25352;DHT22;13304;48.464;8.712;2023-12-07T03:33:16;3.50;92.90
25352;DHT22;13304;48.464;8.712;2023-12-07T03:35:41;3.50;92.90
25352;DHT22;13304;48.464;8.712;2023-12-07T03:38:07;3.50;92.90
25352;DHT22;13304;48.464;8.712;2023-12-07T03:40:34;3.50;92.90
25352;DHT22;13304;48.464;8.712;2023-12-07T03:43:01;3.50;92.90
25352;DHT22;13304;48.464;8.712;2023-12-07T03:45:29;3.50;92.90
25352;DHT22;13304;48.464;8.712;2023-12-07T03:47:55;3.50;92.90
25352;DHT22;13304;48.464;8.712;2023-12-07T03:50:21;3.50;92.80
25352;DHT22;13304;48.464;8.712;2023-12-07T03:52:46;3.50;92.80
25352;DHT22;13304;48.464;8.712;2023-12-07T03:55:12;3.50;92.70
25352;DHT22;13304;48.464;8.712;2023-12-07T03:57:38;3.50;92.70
25352;DHT22;13304;48.464;8.712;2023-12-07T04:00:05;3.60;92.70
25352;DHT22;13304;48.464;8.712;2023-12-07T04:02:34;3.50;92.50
25352;DHT22;13304;48.464;8.712;2023-12-07T04:05:00;3.50;92.40
25352;DHT22;13304;48.464;8.712;2023-12-07T04:07:28;3.50;92.30
25352;DHT22;13304;48.464;8.712;2023-12-07T04:09:55;3.50;92.30
25352;DHT22;13304;48.464;8.712;2023-12-07T04:12:22;3.50;92.20
25352;DHT22;13304;48.464;8.712;2023-12-07T04:14:49;3.40;92.10
25352;DHT22;13304;48.464;8.712;2023-12-07T04:17:15;3.50;92.10
25352;DHT22;13304;48.464;8.712;2023-12-07T04:19:41;3.40;92.00
25352;DHT22;13304;48.464;8.712;2023-12-07T04:22:06;3.40;92.00
25352;DHT22;13304;48.464;8.712;2023-12-07T04:24:32;3.40;91.90
25352;DHT22;13304;48.464;8.712;2023-12-07T04:26:58;3.30;91.90
25352;DHT22;13304;48.464;8.712;2023-12-07T04:29:23;3.30;91.80
25352;DHT22;13304;48.464;8.712;2023-12-07T04:31:49;3.30;91.80
25352;DHT22;13304;48.464;8.712;2023-12-07T04:34:14;3.20;91.80
25352;DHT22;13304;48.464;8.712;2023-12-07T04:36:40;3.20;91.90
25352;DHT22;13304;48.464;8.712;2023-12-07T04:39:06;3.20;91.90
25352;DHT22;13304;48.464;8.712;2023-12-07T04:41:33;3.10;91.90
25352;DHT22;13304;48.464;8.712;2023-12-07T04:43:59;3.10;92.00
25352;DHT22;13304;48.464;8.712;2023-12-07T04:46:24;3.10;92.00
25352;DHT22;13304;48.464;8.712;2023-12-07T04:48:50;3.10;91.90
25352;DHT22;13304;48.464;8.712;2023-12-07T04:51:16;3.10;91.80
25352;DHT22;13304;48.464;8.712;2023-12-07T04:53:42;3.10;91.80
25352;DHT22;13304;48.464;8.712;2023-12-07T04:56:07;3.00;91.70
25352;DHT22;13304;48.464;8.712;2023-12-07T04:58:33;3.00;91.70
25352;DHT22;13304;48.464;8.712;2023-12-07T05:00:59;3.00;91.70
25352;DHT22;13304;48.464;8.712;2023-12-07T05:03:25;3.00;91.80
25352;DHT22;13304;48.464;8.712;2023-12-07T05:05:50;2.90;91.80
25352;DHT22;13304;48.464;8.712;2023-12-07T05:08:16;2.90;92.00
25352;DHT22;13304;48.464;8.712;2023-12-07T05:10:43;2.90;92.00
25352;DHT22;13304;48.464;8.712;2023-12-07T05:13:09;2.90;92.10
25352;DHT22;13304;48.464;8.712;2023-12-07T05:15:34;2.90;92.20
25352;DHT22;13304;48.464;8.712;2023-12-07T05:18:00;2.90;92.20
25352;DHT22;13304;48.464;8.712;2023-12-07T05:20:25;2.90;92.20
25352;DHT22;13304;48.464;8.712;2023-12-07T05:22:53;2.90;92.20
25352;DHT22;13304;48.464;8.712;2023-12-07T05:25:19;2.90;92.20
25352;DHT22;13304;48.464;8.712;2023-12-07T05:27:44;2.90;92.20
25352;DHT22;13304;48.464;8.712;2023-12-07T05:30:11;2.90;92.20
25352;DHT22;13304;48.464;8.712;2023-12-07T05:32:36;2.90;92.20
25352;DHT22;13304;48.464;8.712;2023-12-07T05:35:03;2.90;92.30
25352;DHT22;13304;48.464;8.712;2023-12-07T05:37:29;3.00;92.40
25352;DHT22;13304;48.464;8.712;2023-12-07T05:39:54;3.00;92.70
25352;DHT22;13304;48.464;8.712;2023-12-07T05:42:20;3.00;92.30
25352;DHT22;13304;48.464;8.712;2023-12-07T05:44:45;3.00;92.70
25352;DHT22;13304;48.464;8.712;2023-12-07T05:47:11;3.00;92.30
25352;DHT22;13304;48.464;8.712;2023-12-07T05:49:37;3.00;92.30
25352;DHT22;13304;48.464;8.712;2023-12-07T05:52:02;3.00;92.20
25352;DHT22;13304;48.464;8.712;2023-12-07T05:54:28;3.00;92.20
25352;DHT22;13304;48.464;8.712;2023-12-07T05:56:54;3.00;92.20
25352;DHT22;13304;48.464;8.712;2023-12-07T05:59:19;3.00;92.20
25352;DHT22;13304;48.464;8.712;2023-12-07T06:01:45;3.00;92.30
25352;DHT22;13304;48.464;8.712;2023-12-07T06:04:11;3.00;92.30
25352;DHT22;13304;48.464;8.712;2023-12-07T06:06:38;3.00;92.20
25352;DHT22;13304;48.464;8.712;2023-12-07T06:09:04;2.90;92.00
25352;DHT22;13304;48.464;8.712;2023-12-07T06:11:33;3.00;92.00
25352;DHT22;13304;48.464;8.712;2023-12-07T06:14:00;2.90;91.80
25352;DHT22;13304;48.464;8.712;2023-12-07T06:16:26;2.90;91.70
25352;DHT22;13304;48.464;8.712;2023-12-07T06:18:52;2.90;91.50
25352;DHT22;13304;48.464;8.712;2023-12-07T06:21:17;2.80;91.40
25352;DHT22;13304;48.464;8.712;2023-12-07T06:23:43;2.80;91.50
25352;DHT22;13304;48.464;8.712;2023-12-07T06:26:11;2.80;91.60
25352;DHT22;13304;48.464;8.712;2023-12-07T06:28:37;2.80;91.60
25352;DHT22;13304;48.464;8.712;2023-12-07T06:31:06;2.70;91.60
25352;DHT22;13304;48.464;8.712;2023-12-07T06:33:33;2.70;91.70
25352;DHT22;13304;48.464;8.712;2023-12-07T06:35:58;2.70;91.80
25352;DHT22;13304;48.464;8.712;2023-12-07T06:38:24;2.70;91.90
25352;DHT22;13304;48.464;8.712;2023-12-07T06:40:49;2.70;91.90
25352;DHT22;13304;48.464;8.712;2023-12-07T06:43:15;2.70;91.90
25352;DHT22;13304;48.464;8.712;2023-12-07T06:45:41;2.70;91.90
25352;DHT22;13304;48.464;8.712;2023-12-07T06:48:06;2.70;92.00
25352;DHT22;13304;48.464;8.712;2023-12-07T06:50:32;2.70;92.20
25352;DHT22;13304;48.464;8.712;2023-12-07T06:52:59;2.70;92.60
25352;DHT22;13304;48.464;8.712;2023-12-07T06:55:25;2.70;92.30
25352;DHT22;13304;48.464;8.712;2023-12-07T06:57:51;2.70;92.40
25352;DHT22;13304;48.464;8.712;2023-12-07T07:00:16;2.70;92.30
25352;DHT22;13304;48.464;8.712;2023-12-07T07:02:43;2.70;92.30
25352;DHT22;13304;48.464;8.712;2023-12-07T07:05:09;2.70;92.30
25352;DHT22;13304;48.464;8.712;2023-12-07T07:07:37;2.70;92.20
25352;DHT22;13304;48.464;8.712;2023-12-07T07:10:03;2.70;92.20
25352;DHT22;13304;48.464;8.712;2023-12-07T07:12:29;2.80;92.20
25352;DHT22;13304;48.464;8.712;2023-12-07T07:14:55;2.80;92.30
25352;DHT22;13304;48.464;8.712;2023-12-07T07:17:20;2.80;92.30
25352;DHT22;13304;48.464;8.712;2023-12-07T07:19:46;2.80;92.30
25352;DHT22;13304;48.464;8.712;2023-12-07T07:22:12;2.80;92.30
25352;DHT22;13304;48.464;8.712;2023-12-07T07:24:37;2.80;92.30
25352;DHT22;13304;48.464;8.712;2023-12-07T07:27:03;2.80;92.70
25352;DHT22;13304;48.464;8.712;2023-12-07T07:29:29;2.80;92.30
25352;DHT22;13304;48.464;8.712;2023-12-07T07:31:55;2.80;92.20
25352;DHT22;13304;48.464;8.712;2023-12-07T07:34:21;2.90;92.30
25352;DHT22;13304;48.464;8.712;2023-12-07T07:36:47;2.80;92.30
25352;DHT22;13304;48.464;8.712;2023-12-07T07:39:12;2.90;92.50
25352;DHT22;13304;48.464;8.712;2023-12-07T07:41:39;2.90;92.60
25352;DHT22;13304;48.464;8.712;2023-12-07T07:44:05;2.90;92.50
25352;DHT22;13304;48.464;8.712;2023-12-07T07:46:30;2.90;92.50
25352;DHT22;13304;48.464;8.712;2023-12-07T07:48:56;2.90;92.40
25352;DHT22;13304;48.464;8.712;2023-12-07T07:51:22;3.00;92.50
25352;DHT22;13304;48.464;8.712;2023-12-07T07:53:47;3.00;92.40
25352;DHT22;13304;48.464;8.712;2023-12-07T07:56:13;3.00;92.30
25352;DHT22;13304;48.464;8.712;2023-12-07T07:58:39;3.00;92.30
25352;DHT22;13304;48.464;8.712;2023-12-07T08:01:04;3.00;92.10
25352;DHT22;13304;48.464;8.712;2023-12-07T08:03:30;3.00;92.10
25352;DHT22;13304;48.464;8.712;2023-12-07T08:05:56;3.00;92.00
25352;DHT22;13304;48.464;8.712;2023-12-07T08:08:24;3.00;92.10
25352;DHT22;13304;48.464;8.712;2023-12-07T08:10:52;2.90;92.40
25352;DHT22;13304;48.464;8.712;2023-12-07T08:13:17;3.00;92.30
25352;DHT22;13304;48.464;8.712;2023-12-07T08:15:43;3.00;92.30
25352;DHT22;13304;48.464;8.712;2023-12-07T08:18:08;3.00;92.20
25352;DHT22;13304;48.464;8.712;2023-12-07T08:20:34;3.00;92.10
25352;DHT22;13304;48.464;8.712;2023-12-07T08:23:00;3.00;92.00
25352;DHT22;13304;48.464;8.712;2023-12-07T08:25:26;2.90;92.00
25352;DHT22;13304;48.464;8.712;2023-12-07T08:27:51;2.90;91.80
25352;DHT22;13304;48.464;8.712;2023-12-07T08:30:17;2.90;91.70
25352;DHT22;13304;48.464;8.712;2023-12-07T08:32:44;2.90;91.90
25352;DHT22;13304;48.464;8.712;2023-12-07T08:35:09;2.90;91.80
25352;DHT22;13304;48.464;8.712;2023-12-07T08:37:37;2.80;91.80
25352;DHT22;13304;48.464;8.712;2023-12-07T08:40:05;2.80;91.70
25352;DHT22;13304;48.464;8.712;2023-12-07T08:42:31;2.80;91.60
25352;DHT22;13304;48.464;8.712;2023-12-07T08:44:57;2.80;91.50
25352;DHT22;13304;48.464;8.712;2023-12-07T08:47:23;2.70;91.50
25352;DHT22;13304;48.464;8.712;2023-12-07T08:49:50;2.70;91.60
25352;DHT22;13304;48.464;8.712;2023-12-07T08:52:16;2.60;91.50
25352;DHT22;13304;48.464;8.712;2023-12-07T08:54:43;2.70;91.60
25352;DHT22;13304;48.464;8.712;2023-12-07T08:57:09;2.60;91.70
25352;DHT22;13304;48.464;8.712;2023-12-07T08:59:35;2.60;91.90
25352;DHT22;13304;48.464;8.712;2023-12-07T09:02:00;2.70;92.10
25352;DHT22;13304;48.464;8.712;2023-12-07T09:04:27;2.60;92.20
25352;DHT22;13304;48.464;8.712;2023-12-07T09:06:52;2.70;92.30
25352;DHT22;13304;48.464;8.712;2023-12-07T09:09:19;2.60;92.20
25352;DHT22;13304;48.464;8.712;2023-12-07T09:11:45;2.70;92.30
25352;DHT22;13304;48.464;8.712;2023-12-07T09:14:11;2.70;92.40
25352;DHT22;13304;48.464;8.712;2023-12-07T09:16:44;2.70;92.50
25352;DHT22;13304;48.464;8.712;2023-12-07T09:19:11;2.70;92.40
25352;DHT22;13304;48.464;8.712;2023-12-07T09:21:38;2.70;92.50
25352;DHT22;13304;48.464;8.712;2023-12-07T09:24:04;2.80;92.40
25352;DHT22;13304;48.464;8.712;2023-12-07T09:26:31;2.80;92.40
25352;DHT22;13304;48.464;8.712;2023-12-07T09:28:56;2.80;92.40
25352;DHT22;13304;48.464;8.712;2023-12-07T09:31:22;2.80;92.40
25352;DHT22;13304;48.464;8.712;2023-12-07T09:33:48;2.80;92.30
25352;DHT22;13304;48.464;8.712;2023-12-07T09:36:17;2.80;92.40
25352;DHT22;13304;48.464;8.712;2023-12-07T09:38:44;2.80;92.40
25352;DHT22;13304;48.464;8.712;2023-12-07T09:41:10;2.80;92.50
25352;DHT22;13304;48.464;8.712;2023-12-07T09:43:36;2.80;92.50
25352;DHT22;13304;48.464;8.712;2023-12-07T09:46:02;2.80;92.70
25352;DHT22;13304;48.464;8.712;2023-12-07T09:48:29;2.80;92.70
25352;DHT22;13304;48.464;8.712;2023-12-07T09:50:56;2.90;93.20
25352;DHT22;13304;48.464;8.712;2023-12-07T09:53:22;2.90;92.80
25352;DHT22;13304;48.464;8.712;2023-12-07T09:55:48;2.90;92.90
25352;DHT22;13304;48.464;8.712;2023-12-07T09:58:14;3.00;92.90
25352;DHT22;13304;48.464;8.712;2023-12-07T10:00:40;3.00;93.00
25352;DHT22;13304;48.464;8.712;2023-12-07T10:03:06;3.10;93.10
25352;DHT22;13304;48.464;8.712;2023-12-07T10:05:47;3.10;93.10
25352;DHT22;13304;48.464;8.712;2023-12-07T10:08:26;3.10;93.20
25352;DHT22;13304;48.464;8.712;2023-12-07T10:11:02;3.20;93.10
25352;DHT22;13304;48.464;8.712;2023-12-07T10:13:32;3.20;93.10
25352;DHT22;13304;48.464;8.712;2023-12-07T10:16:14;3.30;93.30
25352;DHT22;13304;48.464;8.712;2023-12-07T10:18:44;3.30;93.30
25352;DHT22;13304;48.464;8.712;2023-12-07T10:21:10;3.40;93.40
25352;DHT22;13304;48.464;8.712;2023-12-07T10:23:40;3.40;93.50
25352;DHT22;13304;48.464;8.712;2023-12-07T10:26:06;3.50;93.50
25352;DHT22;13304;48.464;8.712;2023-12-07T10:28:37;3.50;93.50
25352;DHT22;13304;48.464;8.712;2023-12-07T10:31:08;3.60;93.40
25352;DHT22;13304;48.464;8.712;2023-12-07T10:33:34;3.60;93.30
25352;DHT22;13304;48.464;8.712;2023-12-07T10:36:03;3.60;93.30
25352;DHT22;13304;48.464;8.712;2023-12-07T10:38:28;3.70;93.30
25352;DHT22;13304;48.464;8.712;2023-12-07T10:41:05;3.70;93.40
25352;DHT22;13304;48.464;8.712;2023-12-07T10:43:37;3.80;93.30
25352;DHT22;13304;48.464;8.712;2023-12-07T10:46:05;3.80;93.40
25352;DHT22;13304;48.464;8.712;2023-12-07T10:48:32;3.80;93.40
25352;DHT22;13304;48.464;8.712;2023-12-07T10:51:00;3.90;93.40
25352;DHT22;13304;48.464;8.712;2023-12-07T10:53:40;3.90;93.50
25352;DHT22;13304;48.464;8.712;2023-12-07T10:56:11;3.90;93.60
25352;DHT22;13304;48.464;8.712;2023-12-07T10:58:40;4.00;93.50
25352;DHT22;13304;48.464;8.712;2023-12-07T11:01:07;4.10;93.60
25352;DHT22;13304;48.464;8.712;2023-12-07T11:03:37;4.10;93.50
25352;DHT22;13304;48.464;8.712;2023-12-07T11:06:08;4.10;93.50
25352;DHT22;13304;48.464;8.712;2023-12-07T11:08:47;4.20;93.60
25352;DHT22;13304;48.464;8.712;2023-12-07T11:14:06;4.20;93.30
25352;DHT22;13304;48.464;8.712;2023-12-07T11:16:35;4.30;93.40
25352;DHT22;13304;48.464;8.712;2023-12-07T11:19:05;4.30;93.50
25352;DHT22;13304;48.464;8.712;2023-12-07T11:21:31;4.40;93.50
25352;DHT22;13304;48.464;8.712;2023-12-07T11:24:00;4.40;93.50
25352;DHT22;13304;48.464;8.712;2023-12-07T11:26:26;4.40;93.30
25352;DHT22;13304;48.464;8.712;2023-12-07T11:28:55;4.50;93.20
25352;DHT22;13304;48.464;8.712;2023-12-07T11:31:22;4.50;93.20
25352;DHT22;13304;48.464;8.712;2023-12-07T11:33:48;4.50;93.10
25352;DHT22;13304;48.464;8.712;2023-12-07T11:36:14;4.50;93.20
25352;DHT22;13304;48.464;8.712;2023-12-07T11:41:40;4.60;93.00
25352;DHT22;13304;48.464;8.712;2023-12-07T11:44:09;4.60;93.00
25352;DHT22;13304;48.464;8.712;2023-12-07T11:46:36;4.60;93.10
25352;DHT22;13304;48.464;8.712;2023-12-07T11:49:02;4.60;93.10
25352;DHT22;13304;48.464;8.712;2023-12-07T11:51:29;4.60;93.00
25352;DHT22;13304;48.464;8.712;2023-12-07T11:53:55;4.60;93.10
25352;DHT22;13304;48.464;8.712;2023-12-07T11:56:21;4.70;93.20
25352;DHT22;13304;48.464;8.712;2023-12-07T11:58:47;4.70;93.30
25352;DHT22;13304;48.464;8.712;2023-12-07T12:01:13;4.70;93.20
25352;DHT22;13304;48.464;8.712;2023-12-07T12:03:38;4.70;93.30
25352;DHT22;13304;48.464;8.712;2023-12-07T12:06:06;4.80;93.40
25352;DHT22;13304;48.464;8.712;2023-12-07T12:08:33;4.80;93.40
25352;DHT22;13304;48.464;8.712;2023-12-07T12:10:59;4.80;93.50
25352;DHT22;13304;48.464;8.712;2023-12-07T12:13:35;4.90;93.50
25352;DHT22;13304;48.464;8.712;2023-12-07T12:16:02;4.90;93.70
25352;DHT22;13304;48.464;8.712;2023-12-07T12:18:28;4.90;93.50
25352;DHT22;13304;48.464;8.712;2023-12-07T12:20:54;5.00;93.20
25352;DHT22;13304;48.464;8.712;2023-12-07T12:23:20;5.00;93.30
25352;DHT22;13304;48.464;8.712;2023-12-07T12:25:46;5.00;93.30
25352;DHT22;13304;48.464;8.712;2023-12-07T12:28:15;5.00;93.40
25352;DHT22;13304;48.464;8.712;2023-12-07T12:30:42;5.00;93.20
25352;DHT22;13304;48.464;8.712;2023-12-07T12:33:07;5.00;93.30
25352;DHT22;13304;48.464;8.712;2023-12-07T12:35:33;5.00;93.40
25352;DHT22;13304;48.464;8.712;2023-12-07T12:37:59;5.10;93.40
25352;DHT22;13304;48.464;8.712;2023-12-07T12:40:28;5.10;93.50
25352;DHT22;13304;48.464;8.712;2023-12-07T12:42:57;5.10;93.40
25352;DHT22;13304;48.464;8.712;2023-12-07T12:45:23;5.10;93.40
25352;DHT22;13304;48.464;8.712;2023-12-07T12:47:49;5.20;93.40
25352;DHT22;13304;48.464;8.712;2023-12-07T12:53:00;5.20;93.20
25352;DHT22;13304;48.464;8.712;2023-12-07T12:55:26;5.20;93.30
25352;DHT22;13304;48.464;8.712;2023-12-07T12:57:52;5.20;93.30
25352;DHT22;13304;48.464;8.712;2023-12-07T13:00:18;5.20;93.30
25352;DHT22;13304;48.464;8.712;2023-12-07T13:02:44;5.30;93.30
25352;DHT22;13304;48.464;8.712;2023-12-07T13:05:10;5.30;93.30
25352;DHT22;13304;48.464;8.712;2023-12-07T13:07:35;5.30;93.20
25352;DHT22;13304;48.464;8.712;2023-12-07T13:10:01;5.30;93.20
25352;DHT22;13304;48.464;8.712;2023-12-07T13:12:27;5.30;93.20
25352;DHT22;13304;48.464;8.712;2023-12-07T13:14:55;5.30;93.20
25352;DHT22;13304;48.464;8.712;2023-12-07T13:17:21;5.30;93.20
25352;DHT22;13304;48.464;8.712;2023-12-07T13:19:47;5.30;93.10
25352;DHT22;13304;48.464;8.712;2023-12-07T13:22:12;5.40;93.30
25352;DHT22;13304;48.464;8.712;2023-12-07T13:24:38;5.40;93.30
25352;DHT22;13304;48.464;8.712;2023-12-07T13:27:04;5.40;93.30
25352;DHT22;13304;48.464;8.712;2023-12-07T13:29:30;5.40;93.20
25352;DHT22;13304;48.464;8.712;2023-12-07T13:31:55;5.40;93.20
25352;DHT22;13304;48.464;8.712;2023-12-07T13:34:21;5.40;93.20
25352;DHT22;13304;48.464;8.712;2023-12-07T13:36:46;5.40;93.20
25352;DHT22;13304;48.464;8.712;2023-12-07T13:39:13;5.50;93.00
25352;DHT22;13304;48.464;8.712;2023-12-07T13:41:39;5.50;93.10
25352;DHT22;13304;48.464;8.712;2023-12-07T13:44:05;5.50;93.10
25352;DHT22;13304;48.464;8.712;2023-12-07T13:46:32;5.50;93.40
25352;DHT22;13304;48.464;8.712;2023-12-07T13:48:58;5.50;93.10
25352;DHT22;13304;48.464;8.712;2023-12-07T13:51:24;5.60;93.10
25352;DHT22;13304;48.464;8.712;2023-12-07T13:53:50;5.60;93.00
25352;DHT22;13304;48.464;8.712;2023-12-07T13:56:21;5.60;92.90
25352;DHT22;13304;48.464;8.712;2023-12-07T13:58:46;5.60;92.90
25352;DHT22;13304;48.464;8.712;2023-12-07T14:01:12;5.60;92.80
25352;DHT22;13304;48.464;8.712;2023-12-07T14:03:37;5.60;92.70
25352;DHT22;13304;48.464;8.712;2023-12-07T14:06:03;5.60;92.60
25352;DHT22;13304;48.464;8.712;2023-12-07T14:08:29;5.60;92.50
25352;DHT22;13304;48.464;8.712;2023-12-07T14:10:56;5.60;92.20
25352;DHT22;13304;48.464;8.712;2023-12-07T14:13:22;5.60;92.30
25352;DHT22;13304;48.464;8.712;2023-12-07T14:15:49;5.60;92.40
25352;DHT22;13304;48.464;8.712;2023-12-07T14:18:15;5.60;92.40
25352;DHT22;13304;48.464;8.712;2023-12-07T14:20:41;5.50;92.30
25352;DHT22;13304;48.464;8.712;2023-12-07T14:23:07;5.60;92.30
25352;DHT22;13304;48.464;8.712;2023-12-07T14:25:33;5.50;92.30
25352;DHT22;13304;48.464;8.712;2023-12-07T14:27:59;5.50;92.30
25352;DHT22;13304;48.464;8.712;2023-12-07T14:30:24;5.50;92.30
25352;DHT22;13304;48.464;8.712;2023-12-07T14:32:50;5.40;92.20
25352;DHT22;13304;48.464;8.712;2023-12-07T14:35:19;5.40;92.20
25352;DHT22;13304;48.464;8.712;2023-12-07T14:37:45;5.40;92.20
25352;DHT22;13304;48.464;8.712;2023-12-07T14:40:11;5.40;92.20
25352;DHT22;13304;48.464;8.712;2023-12-07T14:42:38;5.40;92.10
25352;DHT22;13304;48.464;8.712;2023-12-07T14:45:04;5.30;91.80
25352;DHT22;13304;48.464;8.712;2023-12-07T14:47:30;5.30;91.90
25352;DHT22;13304;48.464;8.712;2023-12-07T14:49:56;5.30;92.00
25352;DHT22;13304;48.464;8.712;2023-12-07T14:52:22;5.30;92.00
25352;DHT22;13304;48.464;8.712;2023-12-07T14:54:49;5.20;92.00
25352;DHT22;13304;48.464;8.712;2023-12-07T14:57:18;5.20;92.00
25352;DHT22;13304;48.464;8.712;2023-12-07T14:59:44;5.20;92.00
25352;DHT22;13304;48.464;8.712;2023-12-07T15:02:10;5.20;92.10
25352;DHT22;13304;48.464;8.712;2023-12-07T15:04:38;5.20;92.10
25352;DHT22;13304;48.464;8.712;2023-12-07T15:07:04;5.20;92.00
25352;DHT22;13304;48.464;8.712;2023-12-07T15:09:30;5.20;92.00
25352;DHT22;13304;48.464;8.712;2023-12-07T15:11:56;5.10;91.70
25352;DHT22;13304;48.464;8.712;2023-12-07T15:14:22;5.10;91.80
25352;DHT22;13304;48.464;8.712;2023-12-07T15:16:47;5.10;91.80
25352;DHT22;13304;48.464;8.712;2023-12-07T15:19:14;5.10;91.80
25352;DHT22;13304;48.464;8.712;2023-12-07T15:21:40;5.10;91.80
25352;DHT22;13304;48.464;8.712;2023-12-07T15:24:05;5.10;91.80
25352;DHT22;13304;48.464;8.712;2023-12-07T15:26:31;5.00;91.70
25352;DHT22;13304;48.464;8.712;2023-12-07T15:28:57;5.00;91.70
25352;DHT22;13304;48.464;8.712;2023-12-07T15:31:22;5.00;91.70
25352;DHT22;13304;48.464;8.712;2023-12-07T15:33:48;5.00;91.90
25352;DHT22;13304;48.464;8.712;2023-12-07T15:36:14;4.90;91.90
25352;DHT22;13304;48.464;8.712;2023-12-07T15:38:39;5.00;91.90
25352;DHT22;13304;48.464;8.712;2023-12-07T15:41:06;4.90;91.90
25352;DHT22;13304;48.464;8.712;2023-12-07T15:43:32;4.90;92.30
25352;DHT22;13304;48.464;8.712;2023-12-07T15:45:59;4.90;92.20
25352;DHT22;13304;48.464;8.712;2023-12-07T15:48:24;4.90;91.80